sensor_id;sensor_type;location;lat;lon;timestamp;pressure;altitude;pressure_sealevel;temperature;humidity
24302;BME280;12421;49.732;20.078;2022-10-31T00:11:27;97281.34;;;6.08;85.81
24302;BME280;12421;49.732;20.078;2022-10-31T00:21:32;97283.55;;;5.90;86.48
24302;BME280;12421;49.732;20.078;2022-10-31T00:31:36;97289.05;;;5.86;86.82
24302;BME280;12421;49.732;20.078;2022-10-31T00:41:40;97289.67;;;5.93;87.81
24302;BME280;12421;49.732;20.078;2022-10-31T00:51:48;97294.01;;;6.03;88.06
24302;BME280;12421;49.732;20.078;2022-10-31T01:01:52;97290.73;;;6.06;87.45
24302;BME280;12421;49.732;20.078;2022-10-31T01:11:56;97293.80;;;5.89;87.63
24302;BME280;12421;49.732;20.078;2022-10-31T01:22:00;97292.70;;;5.85;87.65
24302;BME280;12421;49.732;20.078;2022-10-31T01:32:04;97289.81;;;5.89;88.00
24302;BME280;12421;49.732;20.078;2022-10-31T01:42:15;97283.67;;;6.00;88.08
24302;BME280;12421;49.732;20.078;2022-10-31T01:52:25;97278.80;;;5.87;87.19
24302;BME280;12421;49.732;20.078;2022-10-31T02:02:30;97279.25;;;5.71;87.35
24302;BME280;12421;49.732;20.078;2022-10-31T02:12:35;97282.10;;;5.63;87.59
24302;BME280;12421;49.732;20.078;2022-10-31T02:23:13;97275.83;;;5.62;88.01
24302;BME280;12421;49.732;20.078;2022-10-31T02:33:35;97269.82;;;5.68;87.39
24302;BME280;12421;49.732;20.078;2022-10-31T02:53:48;97280.42;;;5.43;87.60
24302;BME280;12421;49.732;20.078;2022-10-31T03:14:22;97298.27;;;5.48;87.70
24302;BME280;12421;49.732;20.078;2022-10-31T03:24:37;97303.73;;;5.53;87.90
24302;BME280;12421;49.732;20.078;2022-10-31T03:34:44;97304.02;;;5.61;87.96
24302;BME280;12421;49.732;20.078;2022-10-31T03:55:26;97312.35;;;5.71;87.82
24302;BME280;12421;49.732;20.078;2022-10-31T04:05:33;97314.73;;;5.79;87.88
24302;BME280;12421;49.732;20.078;2022-10-31T04:15:40;97313.80;;;5.85;87.80
24302;BME280;12421;49.732;20.078;2022-10-31T04:25:44;97309.22;;;5.96;88.26
24302;BME280;12421;49.732;20.078;2022-10-31T04:35:48;97308.38;;;5.97;87.99
24302;BME280;12421;49.732;20.078;2022-10-31T04:45:53;97310.35;;;5.87;87.60
24302;BME280;12421;49.732;20.078;2022-10-31T04:55:58;97315.96;;;5.80;87.34
24302;BME280;12421;49.732;20.078;2022-10-31T05:06:12;97316.39;;;5.73;87.00
24302;BME280;12421;49.732;20.078;2022-10-31T05:16:17;97319.92;;;5.65;87.09
24302;BME280;12421;49.732;20.078;2022-10-31T05:26:56;97322.02;;;5.53;87.12
24302;BME280;12421;49.732;20.078;2022-10-31T05:37:01;97329.42;;;5.47;86.79
24302;BME280;12421;49.732;20.078;2022-10-31T05:47:05;97335.91;;;5.39;87.31
24302;BME280;12421;49.732;20.078;2022-10-31T05:57:28;97349.64;;;5.38;87.51
24302;BME280;12421;49.732;20.078;2022-10-31T06:07:34;97354.32;;;5.59;88.18
24302;BME280;12421;49.732;20.078;2022-10-31T06:17:39;97359.64;;;5.76;87.89
24302;BME280;12421;49.732;20.078;2022-10-31T06:27:46;97365.87;;;5.95;87.92
24302;BME280;12421;49.732;20.078;2022-10-31T06:37:54;97371.75;;;6.18;88.85
24302;BME280;12421;49.732;20.078;2022-10-31T06:48:11;97374.65;;;6.54;89.77
24302;BME280;12421;49.732;20.078;2022-10-31T06:58:38;97381.86;;;6.90;90.25
24302;BME280;12421;49.732;20.078;2022-10-31T07:08:43;97384.54;;;7.31;91.09
24302;BME280;12421;49.732;20.078;2022-10-31T07:18:49;97383.35;;;7.79;92.05
24302;BME280;12421;49.732;20.078;2022-10-31T07:28:53;97385.09;;;8.29;92.60
24302;BME280;12421;49.732;20.078;2022-10-31T07:39:00;97382.68;;;8.78;92.69
24302;BME280;12421;49.732;20.078;2022-10-31T07:49:07;97382.45;;;9.28;92.40
24302;BME280;12421;49.732;20.078;2022-10-31T07:59:14;97381.24;;;9.76;92.70
24302;BME280;12421;49.732;20.078;2022-10-31T08:09:18;97375.77;;;10.22;92.29
24302;BME280;12421;49.732;20.078;2022-10-31T08:19:22;97377.23;;;10.61;92.05
24302;BME280;12421;49.732;20.078;2022-10-31T08:29:26;97376.54;;;10.98;92.08
24302;BME280;12421;49.732;20.078;2022-10-31T08:39:31;97378.05;;;11.37;90.97
24302;BME280;12421;49.732;20.078;2022-10-31T08:49:36;97379.21;;;11.74;90.81
24302;BME280;12421;49.732;20.078;2022-10-31T08:59:40;97376.00;;;12.17;90.21
24302;BME280;12421;49.732;20.078;2022-10-31T09:10:13;97370.67;;;12.69;89.67
24302;BME280;12421;49.732;20.078;2022-10-31T09:20:18;97367.50;;;13.23;88.48
24302;BME280;12421;49.732;20.078;2022-10-31T09:30:22;97367.86;;;13.69;86.34
24302;BME280;12421;49.732;20.078;2022-10-31T09:40:44;97364.77;;;14.16;85.63
24302;BME280;12421;49.732;20.078;2022-10-31T09:50:55;97366.12;;;14.67;85.07
24302;BME280;12421;49.732;20.078;2022-10-31T10:22:12;97353.31;;;15.95;78.62
24302;BME280;12421;49.732;20.078;2022-10-31T10:32:25;97349.48;;;16.39;77.94
24302;BME280;12421;49.732;20.078;2022-10-31T10:42:31;97340.86;;;16.82;76.82
24302;BME280;12421;49.732;20.078;2022-10-31T11:03:35;97332.40;;;17.72;72.26
24302;BME280;12421;49.732;20.078;2022-10-31T11:13:41;97328.83;;;18.15;71.30
24302;BME280;12421;49.732;20.078;2022-10-31T11:23:46;97325.64;;;18.51;70.23
24302;BME280;12421;49.732;20.078;2022-10-31T11:33:55;97318.60;;;18.82;69.24
24302;BME280;12421;49.732;20.078;2022-10-31T11:44:11;97320.40;;;19.14;66.65
24302;BME280;12421;49.732;20.078;2022-10-31T11:54:32;97316.75;;;19.49;65.34
24302;BME280;12421;49.732;20.078;2022-10-31T12:04:45;97312.63;;;19.72;64.28
24302;BME280;12421;49.732;20.078;2022-10-31T12:35:32;97304.09;;;20.06;61.98
24302;BME280;12421;49.732;20.078;2022-10-31T12:45:58;97301.91;;;20.02;61.55
24302;BME280;12421;49.732;20.078;2022-10-31T13:06:50;97291.36;;;19.90;61.00
24302;BME280;12421;49.732;20.078;2022-10-31T13:16:56;97293.05;;;19.76;60.98
24302;BME280;12421;49.732;20.078;2022-10-31T13:27:11;97295.76;;;19.75;60.11
24302;BME280;12421;49.732;20.078;2022-10-31T13:37:36;97291.49;;;19.87;60.42
24302;BME280;12421;49.732;20.078;2022-10-31T13:47:42;97287.67;;;19.76;60.26
24302;BME280;12421;49.732;20.078;2022-10-31T13:57:46;97283.28;;;19.44;60.64
24302;BME280;12421;49.732;20.078;2022-10-31T14:07:52;97278.98;;;18.99;62.15
24302;BME280;12421;49.732;20.078;2022-10-31T14:18:00;97275.27;;;18.61;63.36
24302;BME280;12421;49.732;20.078;2022-10-31T14:28:31;97277.53;;;18.13;64.39
24302;BME280;12421;49.732;20.078;2022-10-31T14:39:02;97274.46;;;17.52;65.61
24302;BME280;12421;49.732;20.078;2022-10-31T14:59:28;97273.73;;;16.36;68.19
24302;BME280;12421;49.732;20.078;2022-10-31T15:09:35;97277.13;;;15.76;69.54
24302;BME280;12421;49.732;20.078;2022-10-31T15:19:42;97282.96;;;15.10;70.64
24302;BME280;12421;49.732;20.078;2022-10-31T15:29:56;97283.89;;;14.43;71.67
24302;BME280;12421;49.732;20.078;2022-10-31T15:40:11;97285.92;;;13.83;72.66
24302;BME280;12421;49.732;20.078;2022-10-31T15:50:21;97292.73;;;13.24;73.47
24302;BME280;12421;49.732;20.078;2022-10-31T16:10:34;97309.38;;;12.10;76.01
24302;BME280;12421;49.732;20.078;2022-10-31T16:20:48;97315.23;;;11.68;76.95
24302;BME280;12421;49.732;20.078;2022-10-31T16:30:55;97320.60;;;11.32;77.91
24302;BME280;12421;49.732;20.078;2022-10-31T16:41:01;97317.52;;;10.97;78.57
24302;BME280;12421;49.732;20.078;2022-10-31T16:51:07;97322.60;;;10.65;78.59
24302;BME280;12421;49.732;20.078;2022-10-31T17:01:12;97327.49;;;10.34;79.52
24302;BME280;12421;49.732;20.078;2022-10-31T17:11:18;97326.49;;;10.03;79.90
24302;BME280;12421;49.732;20.078;2022-10-31T17:21:24;97332.88;;;9.73;80.60
24302;BME280;12421;49.732;20.078;2022-10-31T17:31:32;97330.60;;;9.43;80.92
24302;BME280;12421;49.732;20.078;2022-10-31T17:41:39;97335.14;;;9.17;81.25
24302;BME280;12421;49.732;20.078;2022-10-31T17:51:43;97333.89;;;8.95;81.95
24302;BME280;12421;49.732;20.078;2022-10-31T18:01:47;97335.41;;;8.72;82.06
24302;BME280;12421;49.732;20.078;2022-10-31T18:11:52;97331.46;;;8.43;82.13
24302;BME280;12421;49.732;20.078;2022-10-31T18:21:56;97331.16;;;8.21;82.62
24302;BME280;12421;49.732;20.078;2022-10-31T18:32:00;97328.29;;;8.07;83.85
24302;BME280;12421;49.732;20.078;2022-10-31T18:42:11;97327.67;;;7.93;83.56
24302;BME280;12421;49.732;20.078;2022-10-31T18:52:15;97328.83;;;7.79;83.47
24302;BME280;12421;49.732;20.078;2022-10-31T19:02:20;97322.80;;;7.64;83.34
24302;BME280;12421;49.732;20.078;2022-10-31T19:12:26;97319.73;;;7.54;83.92
24302;BME280;12421;49.732;20.078;2022-10-31T19:22:30;97312.72;;;7.50;83.71
24302;BME280;12421;49.732;20.078;2022-10-31T19:32:35;97308.55;;;7.30;83.39
24302;BME280;12421;49.732;20.078;2022-10-31T19:42:38;97309.97;;;7.10;83.93
24302;BME280;12421;49.732;20.078;2022-10-31T19:52:44;97307.74;;;6.96;84.03
24302;BME280;12421;49.732;20.078;2022-10-31T20:02:48;97300.30;;;6.84;84.49
24302;BME280;12421;49.732;20.078;2022-10-31T20:12:53;97298.05;;;6.69;84.10
24302;BME280;12421;49.732;20.078;2022-10-31T20:22:58;97303.62;;;6.50;84.74
24302;BME280;12421;49.732;20.078;2022-10-31T20:33:04;97306.90;;;6.46;85.18
24302;BME280;12421;49.732;20.078;2022-10-31T20:43:10;97297.80;;;6.45;85.62
24302;BME280;12421;49.732;20.078;2022-10-31T20:53:15;97293.98;;;6.30;85.71
24302;BME280;12421;49.732;20.078;2022-10-31T21:03:19;97289.11;;;6.17;85.39
24302;BME280;12421;49.732;20.078;2022-10-31T21:13:24;97286.59;;;6.10;85.99
24302;BME280;12421;49.732;20.078;2022-10-31T21:23:31;97288.02;;;6.13;85.70
24302;BME280;12421;49.732;20.078;2022-10-31T21:33:38;97282.35;;;6.06;85.07
24302;BME280;12421;49.732;20.078;2022-10-31T21:43:44;97276.63;;;5.82;84.64
24302;BME280;12421;49.732;20.078;2022-10-31T21:53:50;97271.20;;;5.55;85.05
24302;BME280;12421;49.732;20.078;2022-10-31T22:04:13;97256.33;;;5.50;86.15
24302;BME280;12421;49.732;20.078;2022-10-31T22:14:17;97255.40;;;5.45;85.54
24302;BME280;12421;49.732;20.078;2022-10-31T22:24:21;97247.54;;;5.56;86.10
24302;BME280;12421;49.732;20.078;2022-10-31T22:34:25;97245.59;;;5.54;85.49
24302;BME280;12421;49.732;20.078;2022-10-31T22:44:28;97242.82;;;5.42;85.74
24302;BME280;12421;49.732;20.078;2022-10-31T22:54:32;97228.02;;;5.31;85.44
24302;BME280;12421;49.732;20.078;2022-10-31T23:04:37;97225.21;;;5.17;85.06
24302;BME280;12421;49.732;20.078;2022-10-31T23:14:41;97221.66;;;5.13;85.35
24302;BME280;12421;49.732;20.078;2022-10-31T23:24:46;97214.98;;;5.07;85.10
24302;BME280;12421;49.732;20.078;2022-10-31T23:34:52;97208.12;;;5.03;86.15
24302;BME280;12421;49.732;20.078;2022-10-31T23:44:56;97197.58;;;4.85;85.41
24302;BME280;12421;49.732;20.078;2022-10-31T23:55:00;97184.59;;;4.78;85.21
